createdAt,value
2018-10-21T05:41:44.766Z,0
2018-10-21T05:42:04.261Z,0
2018-10-21T05:42:23.829Z,0
2018-10-21T05:42:43.348Z,0
2018-10-21T05:43:02.888Z,0
2018-10-21T05:43:22.399Z,0
2018-10-21T05:43:41.901Z,0
2018-10-21T05:44:01.406Z,0
2018-10-21T05:44:20.939Z,0
2018-10-21T05:44:40.450Z,0
2018-10-21T05:44:59.958Z,0
2018-10-21T05:45:20.463Z,0
2018-10-21T05:45:39.999Z,0
2018-10-21T05:46:00.566Z,0
2018-10-21T05:46:20.032Z,0
2018-10-21T05:46:39.665Z,0
2018-10-21T05:46:59.162Z,0
2018-10-21T05:47:18.767Z,0
2018-10-21T05:47:38.239Z,0
2018-10-21T05:47:58.716Z,0
2018-10-21T05:48:18.232Z,0
2018-10-21T05:48:37.747Z,0
2018-10-21T05:48:57.272Z,0
2018-10-21T05:49:16.781Z,0
2018-10-21T05:49:36.309Z,0
2018-10-21T05:49:56.086Z,0
2018-10-21T05:50:15.695Z,0
2018-10-21T05:50:35.384Z,0
2018-10-21T05:50:54.919Z,0
2018-10-21T05:51:14.433Z,0
2018-10-21T05:51:33.953Z,0
2018-10-21T05:51:53.559Z,0
2018-10-21T05:52:13.114Z,0
2018-10-21T05:52:32.603Z,0
2018-10-21T05:52:52.216Z,0
2018-10-21T05:53:11.741Z,0
2018-10-21T05:53:31.238Z,0
2018-10-21T05:53:50.775Z,0
2018-10-21T05:54:10.284Z,0
2018-10-21T05:54:29.783Z,0
2018-10-21T05:54:49.338Z,0
2018-10-21T05:55:08.846Z,0
2018-10-21T05:55:28.391Z,0
2018-10-21T05:55:47.879Z,0
2018-10-21T05:56:07.372Z,0
2018-10-21T05:56:26.873Z,0
2018-10-21T05:56:46.438Z,0
2018-10-21T05:57:05.948Z,0
2018-10-21T05:57:26.436Z,0
2018-10-21T05:57:46.004Z,0
2018-10-21T05:58:06.559Z,0
2018-10-21T05:58:26.041Z,0
2018-10-21T05:58:45.418Z,0
2018-10-21T05:59:04.923Z,0
2018-10-21T05:59:24.435Z,0
2018-10-21T05:59:44.928Z,0
2018-10-21T06:00:04.471Z,0
2018-10-21T06:00:23.995Z,0
2018-10-21T06:00:44.467Z,0
2018-10-21T06:01:03.969Z,0
2018-10-21T06:01:23.482Z,0
2018-10-21T06:01:42.966Z,0
2018-10-21T06:02:02.533Z,0
2018-10-21T06:02:22.044Z,0
2018-10-21T06:02:41.576Z,0
2018-10-21T06:03:01.170Z,0
2018-10-21T06:03:20.553Z,0
2018-10-21T06:03:40.117Z,0
2018-10-21T06:03:59.681Z,0
2018-10-21T06:04:19.167Z,0
2018-10-21T06:04:39.706Z,0
2018-10-21T06:04:59.212Z,0
2018-10-21T06:05:18.727Z,0
2018-10-21T06:05:38.213Z,0
2018-10-21T06:05:57.732Z,0
2018-10-21T06:06:17.232Z,0
2018-10-21T06:06:36.720Z,0
2018-10-21T06:06:56.277Z,0
2018-10-21T06:07:15.776Z,0
2018-10-21T06:07:35.308Z,0
2018-10-21T06:07:54.880Z,0
2018-10-21T06:08:14.492Z,0
2018-10-21T06:08:33.986Z,0
2018-10-21T06:08:53.500Z,0
2018-10-21T06:09:12.992Z,0
2018-10-21T06:09:33.493Z,0
2018-10-21T06:09:53.002Z,0
2018-10-21T06:10:12.571Z,0
2018-10-21T06:10:32.052Z,0
2018-10-21T06:10:51.571Z,0
2018-10-21T06:11:11.196Z,0
2018-10-21T06:11:30.733Z,0
2018-10-21T06:11:50.264Z,0
2018-10-21T06:12:10.929Z,0
2018-10-21T06:12:31.470Z,0
2018-10-21T06:12:51.009Z,0
2018-10-21T06:13:29.232Z,28.6
2018-10-21T06:13:48.750Z,27.1
2018-10-21T06:14:09.239Z,31.6
2018-10-21T06:14:29.727Z,29.200001
2018-10-21T06:14:49.240Z,30.5
2018-10-21T06:15:08.754Z,34.200001
2018-10-21T06:15:28.250Z,29.9
2018-10-21T06:15:47.853Z,31.799999
2018-10-21T06:16:07.335Z,28.6
2018-10-21T06:16:26.813Z,29.4
2018-10-21T06:16:46.460Z,32.099998
2018-10-21T06:17:06.054Z,33.599998
2018-10-21T06:17:25.566Z,32
2018-10-21T06:17:45.057Z,28.1
2018-10-21T06:18:04.572Z,30.6
2018-10-21T06:18:24.077Z,35.900002
2018-10-21T06:18:43.593Z,32.400002
2018-10-21T06:19:03.115Z,31.6
2018-10-21T06:19:22.613Z,27.5
2018-10-21T06:19:42.135Z,30.1
2018-10-21T06:20:01.649Z,32
2018-10-21T06:20:21.161Z,29.9
2018-10-21T06:20:40.669Z,31.9
2018-10-21T06:21:01.162Z,31.6
2018-10-21T06:21:20.692Z,33.299999
2018-10-21T06:21:40.238Z,32.599998
2018-10-21T06:22:00.781Z,31.4
2018-10-21T06:22:20.302Z,30.799999
2018-10-21T06:22:39.839Z,28.700001
2018-10-21T06:22:59.346Z,30.1
2018-10-21T06:23:18.859Z,30.799999
2018-10-21T06:23:38.390Z,28.200001
2018-10-21T06:23:57.879Z,33.599998
2018-10-21T06:24:17.394Z,26.700001
2018-10-21T06:24:36.907Z,31
2018-10-21T06:24:56.418Z,28.700001
2018-10-21T06:25:15.916Z,24.200001
2018-10-21T06:25:35.468Z,27.299999
2018-10-21T06:25:54.959Z,31.799999
2018-10-21T06:26:15.445Z,31.200001
2018-10-21T06:26:34.943Z,26.200001
2018-10-21T06:26:54.451Z,28.9
2018-10-21T06:27:14.001Z,31.4
2018-10-21T06:27:33.577Z,28
2018-10-21T06:27:53.051Z,30.6
2018-10-21T06:28:12.565Z,30.700001
2018-10-21T06:28:32.068Z,28.6
2018-10-21T06:28:51.582Z,27.9
2018-10-21T06:29:11.085Z,26.299999
2018-10-21T06:29:30.609Z,31.6
2018-10-21T06:29:50.129Z,40.299999
2018-10-21T06:30:09.640Z,36.299999
2018-10-21T06:30:29.186Z,28.1
2018-10-21T06:30:48.727Z,28.1
2018-10-21T06:31:08.289Z,28.4
2018-10-21T06:31:27.789Z,31.1
2018-10-21T06:31:47.278Z,26.799999
2018-10-21T06:32:06.793Z,30.5
2018-10-21T06:32:26.362Z,32.200001
2018-10-21T06:32:45.865Z,31.1
2018-10-21T06:33:05.508Z,25.9
2018-10-21T06:33:24.917Z,28.9
2018-10-21T06:33:44.420Z,27.1
2018-10-21T06:34:03.940Z,29
2018-10-21T06:34:23.451Z,28.5
2018-10-21T06:34:42.966Z,27.1
2018-10-21T06:35:02.464Z,29.5
2018-10-21T06:35:22.000Z,24.9
2018-10-21T06:35:41.522Z,23.6
2018-10-21T06:36:01.055Z,23.299999
2018-10-21T06:36:20.552Z,26.200001
2018-10-21T06:36:40.189Z,31.1
2018-10-21T06:36:59.599Z,29.9
2018-10-21T06:37:19.209Z,27.9
2018-10-21T06:37:38.756Z,29.200001
2018-10-21T06:37:58.268Z,30.4
2018-10-21T06:38:17.801Z,30.4
2018-10-21T06:38:37.294Z,31.4
2018-10-21T06:38:56.872Z,21.9
2018-10-21T06:39:16.330Z,27.700001
2018-10-21T06:39:35.820Z,29.799999
2018-10-21T06:39:55.333Z,32.299999
2018-10-21T06:40:14.826Z,31.200001
2018-10-21T06:40:34.343Z,31.4
2018-10-21T06:40:53.869Z,29.5
2018-10-21T06:41:14.416Z,34.099998
2018-10-21T06:41:33.946Z,31.799999
2018-10-21T06:41:53.448Z,30
2018-10-21T06:42:13.030Z,29.700001
2018-10-21T06:42:32.605Z,28.1
2018-10-21T06:42:52.119Z,32.299999
2018-10-21T06:43:11.643Z,29.6
2018-10-21T06:43:31.132Z,28.6
2018-10-21T06:43:51.640Z,25.1
2018-10-21T06:44:12.176Z,32.299999
2018-10-21T06:44:31.686Z,32.099998
2018-10-21T06:44:52.186Z,32.099998
2018-10-21T06:45:11.760Z,29
2018-10-21T06:45:31.229Z,27.5
2018-10-21T06:45:50.703Z,26.700001
2018-10-21T06:46:10.222Z,25.799999
2018-10-21T06:46:30.697Z,26.700001
2018-10-21T06:46:50.201Z,26.700001
2018-10-21T06:47:10.692Z,27.6
2018-10-21T06:47:30.231Z,27.4
2018-10-21T06:47:49.787Z,23.6
2018-10-21T06:48:09.294Z,24.299999
2018-10-21T06:48:28.862Z,28.6
2018-10-21T06:48:48.326Z,28.4
2018-10-21T06:49:08.833Z,31.700001
2018-10-21T06:49:28.340Z,28.9
2018-10-21T06:49:47.883Z,31.700001
2018-10-21T06:50:07.373Z,31.4
2018-10-21T06:50:26.910Z,33.200001
2018-10-21T06:50:47.382Z,26.1
2018-10-21T06:51:06.911Z,29.4
2018-10-21T06:51:26.410Z,30.299999
2018-10-21T06:51:45.928Z,30.700001
2018-10-21T06:52:05.440Z,25.799999
2018-10-21T06:52:25.015Z,26.1
2018-10-21T06:52:44.546Z,26
2018-10-21T06:53:04.036Z,27.9
2018-10-21T06:53:23.526Z,31.799999
2018-10-21T06:53:43.039Z,30.1
2018-10-21T06:54:02.551Z,28.700001
2018-10-21T06:54:22.052Z,28.700001
2018-10-21T06:54:41.548Z,34.099998
2018-10-21T06:55:02.051Z,32.599998
2018-10-21T06:55:21.582Z,30.1
2018-10-21T06:55:41.096Z,33.400002
2018-10-21T06:56:00.593Z,29.799999
2018-10-21T06:56:20.247Z,34.200001
2018-10-21T06:56:39.940Z,31.299999
2018-10-21T06:56:59.198Z,28.6
2018-10-21T06:57:18.865Z,27.700001
2018-10-21T06:57:38.261Z,32.400002
2018-10-21T06:57:57.718Z,34.099998
2018-10-21T06:58:17.223Z,32.799999
2018-10-21T06:58:36.720Z,32.700001
2018-10-21T06:58:56.254Z,30.700001
2018-10-21T06:59:15.760Z,25.5
2018-10-21T06:59:35.266Z,25
2018-10-21T06:59:54.787Z,28.4
2018-10-21T07:00:14.358Z,34
2018-10-21T07:00:33.864Z,34.299999
2018-10-21T07:00:53.368Z,40
2018-10-21T07:01:12.904Z,33.900002
2018-10-21T07:01:32.421Z,28.799999
2018-10-21T07:01:51.958Z,29
2018-10-21T07:02:11.478Z,29
2018-10-21T07:02:31.054Z,29.1
2018-10-21T07:02:51.603Z,32.299999
2018-10-21T07:03:11.140Z,33.5
2018-10-21T07:03:30.618Z,31.4
2018-10-21T07:03:50.130Z,24
2018-10-21T07:04:10.679Z,23.799999
2018-10-21T07:04:30.155Z,23.9
2018-10-21T07:04:49.677Z,27.9
2018-10-21T07:05:10.309Z,25.1
2018-10-21T07:05:29.722Z,28.5
2018-10-21T07:05:49.244Z,26.6
2018-10-21T07:06:08.761Z,33.400002
2018-10-21T07:06:28.297Z,28.4
2018-10-21T07:06:47.803Z,27.5
2018-10-21T07:07:08.313Z,25.6
2018-10-21T07:07:27.819Z,28.200001
2018-10-21T07:07:47.378Z,28.5
2018-10-21T07:08:06.886Z,29.1
2018-10-21T07:08:26.452Z,27.4
2018-10-21T07:08:46.000Z,36.099998
2018-10-21T07:09:05.503Z,31.6
2018-10-21T07:09:24.996Z,31.799999
2018-10-21T07:09:44.491Z,28.799999
2018-10-21T07:10:04.041Z,28
2018-10-21T07:10:24.487Z,34.799999
2018-10-21T07:10:43.987Z,31.1
2018-10-21T07:11:03.523Z,28.4
2018-10-21T07:11:23.022Z,31.1
2018-10-21T07:11:42.518Z,29.4
2018-10-21T07:12:02.113Z,34.900002
2018-10-21T07:12:21.636Z,36.200001
2018-10-21T07:12:41.194Z,36.200001
2018-10-21T07:13:00.710Z,32.700001
2018-10-21T07:13:20.216Z,34.200001
2018-10-21T07:13:40.713Z,30.1
2018-10-21T07:14:00.219Z,30
2018-10-21T07:14:19.779Z,31.4
2018-10-21T07:14:39.303Z,32.099998
2018-10-21T07:14:58.823Z,34.700001
2018-10-21T07:15:18.411Z,32.400002
2018-10-21T07:15:37.966Z,29.299999
2018-10-21T07:15:57.492Z,32.799999
2018-10-21T07:16:16.978Z,34.700001
2018-10-21T07:16:36.530Z,32.200001
2018-10-21T07:16:55.933Z,32.5
2018-10-21T07:17:15.456Z,31.1
2018-10-21T07:17:34.978Z,28.6
2018-10-21T07:17:54.543Z,32
2018-10-21T07:18:15.062Z,37.099998
2018-10-21T07:18:34.577Z,30.799999
2018-10-21T07:18:54.079Z,30.799999
2018-10-21T07:19:13.587Z,29.4
2018-10-21T07:19:33.119Z,33
2018-10-21T07:19:52.623Z,38.599998
2018-10-21T07:20:12.212Z,31.9
2018-10-21T07:20:31.720Z,29.9
2018-10-21T07:20:51.259Z,31.700001
2018-10-21T07:21:10.757Z,27.9
2018-10-21T07:21:30.271Z,31.200001
2018-10-21T07:21:49.774Z,29.1
2018-10-21T07:22:09.321Z,28.9
2018-10-21T07:22:28.789Z,27.799999
2018-10-21T07:22:48.349Z,35.700001
2018-10-21T07:23:07.857Z,35.700001
2018-10-21T07:23:27.374Z,32.5
2018-10-21T07:23:46.888Z,29.700001
2018-10-21T07:24:06.434Z,33.799999
2018-10-21T07:24:25.964Z,34.299999
2018-10-21T07:24:45.478Z,32.599998
2018-10-21T07:25:04.996Z,31.1
2018-10-21T07:25:24.505Z,26.9
2018-10-21T07:25:44.030Z,27.6
2018-10-21T07:26:03.559Z,33.200001
2018-10-21T07:26:23.061Z,36
2018-10-21T07:26:42.552Z,33.5
2018-10-21T07:27:02.089Z,28.4
2018-10-21T07:27:21.605Z,27.700001
2018-10-21T07:27:41.103Z,30.1
2018-10-21T07:28:00.697Z,34.799999
2018-10-21T07:28:20.328Z,35.200001
2018-10-21T07:28:39.732Z,32.200001
2018-10-21T07:28:59.192Z,30.700001
2018-10-21T07:29:18.710Z,28.700001
2018-10-21T07:29:38.255Z,27.200001
2018-10-21T07:29:57.780Z,34.400002
2018-10-21T07:30:17.295Z,30.299999
2018-10-21T07:30:36.805Z,28.1
2018-10-21T07:30:56.331Z,37.099998
2018-10-21T07:31:15.881Z,34.400002
2018-10-21T07:31:35.416Z,34.099998
2018-10-21T07:31:54.953Z,30.9
2018-10-21T07:32:14.579Z,29.700001
2018-10-21T07:32:34.091Z,32.599998
2018-10-21T07:32:53.649Z,31.5
2018-10-21T07:33:13.165Z,32.5
2018-10-21T07:33:32.688Z,28.4
2018-10-21T07:33:52.209Z,30.700001
2018-10-21T07:34:11.818Z,32.5
2018-10-21T07:34:31.272Z,30
2018-10-21T07:34:50.883Z,30.4
2018-10-21T07:35:10.430Z,29.5
2018-10-21T07:35:30.975Z,33.099998
2018-10-21T07:35:50.467Z,31.6
2018-10-21T07:36:10.048Z,33
2018-10-21T07:36:29.559Z,38.799999
2018-10-21T07:36:49.095Z,32.900002
2018-10-21T07:37:08.626Z,29.200001
2018-10-21T07:37:28.151Z,29.6
2018-10-21T07:37:47.677Z,30.1
2018-10-21T07:38:07.281Z,31.700001
2018-10-21T07:38:26.860Z,33.200001
2018-10-21T07:38:46.374Z,36.299999
2018-10-21T07:39:05.896Z,35.200001
2018-10-21T07:39:25.432Z,31.5
2018-10-21T07:39:44.958Z,34.099998
2018-10-21T07:40:04.509Z,36.299999
2018-10-21T07:40:24.040Z,30.6
2018-10-21T07:40:43.579Z,30.799999
2018-10-21T07:41:03.125Z,28.9
2018-10-21T07:41:22.696Z,29.5
2018-10-21T07:41:42.239Z,31.799999
2018-10-21T07:42:01.753Z,33.599998
2018-10-21T07:42:21.328Z,30.200001
2018-10-21T07:42:40.938Z,30.799999
2018-10-21T07:43:00.501Z,37.700001
2018-10-21T07:43:20.054Z,34.200001
2018-10-21T07:43:39.578Z,30.1
2018-10-21T07:43:59.111Z,32.700001
2018-10-21T07:44:18.641Z,36.700001
2018-10-21T07:44:38.165Z,35.299999
2018-10-21T07:44:57.681Z,31
2018-10-21T07:45:17.212Z,32.200001
2018-10-21T07:45:36.762Z,34.799999
2018-10-21T07:45:57.314Z,37.400002
2018-10-21T07:46:16.909Z,33.900002
2018-10-21T07:46:36.321Z,28.200001
2018-10-21T07:46:55.838Z,27.200001
2018-10-21T07:47:15.373Z,27.1
2018-10-21T07:47:34.901Z,27.200001
2018-10-21T07:47:54.431Z,28.200001
2018-10-21T07:48:13.999Z,31.9
2018-10-21T07:48:33.523Z,32.299999
2018-10-21T07:48:53.077Z,34.400002
2018-10-21T07:49:12.596Z,31.5
2018-10-21T07:49:32.101Z,35.599998
2018-10-21T07:49:51.667Z,34.5
2018-10-21T07:50:11.171Z,27.9
2018-10-21T07:50:30.729Z,32.099998
2018-10-21T07:50:51.256Z,33.599998
2018-10-21T07:51:10.763Z,34.099998
2018-10-21T07:51:30.261Z,30.5
2018-10-21T07:51:49.770Z,28.6
2018-10-21T07:52:09.343Z,30.299999
2018-10-21T07:52:29.800Z,36.200001
2018-10-21T07:52:49.308Z,29.5
2018-10-21T07:53:08.876Z,30.9
2018-10-21T07:53:28.391Z,31.1
2018-10-21T07:53:47.924Z,29.299999
2018-10-21T07:54:08.413Z,29.1
2018-10-21T07:54:27.916Z,30.700001
2018-10-21T07:54:47.395Z,31
2018-10-21T07:55:06.974Z,29.299999
2018-10-21T07:55:26.467Z,27.6
2018-10-21T07:55:46.000Z,29.9
2018-10-21T07:56:05.457Z,30.299999
2018-10-21T07:56:25.991Z,31.299999
2018-10-21T07:56:45.539Z,31.1
2018-10-21T07:57:06.106Z,30.200001
2018-10-21T07:57:25.633Z,32.900002
2018-10-21T07:57:45.175Z,30.799999
2018-10-21T07:58:04.676Z,31.5
2018-10-21T07:58:25.259Z,34.599998
2018-10-21T07:58:44.793Z,34
2018-10-21T07:59:04.350Z,27.6
2018-10-21T07:59:23.852Z,28.700001
2018-10-21T07:59:43.388Z,37.099998
2018-10-21T08:00:02.947Z,31
2018-10-21T08:00:22.486Z,31.1
2018-10-21T08:00:42.017Z,35.5
2018-10-21T08:01:01.588Z,32
2018-10-21T08:01:21.047Z,32.700001
2018-10-21T08:01:40.561Z,30.5
2018-10-21T08:02:00.054Z,27.299999
2018-10-21T08:02:19.588Z,31.299999
2018-10-21T08:02:39.118Z,37.700001
2018-10-21T08:02:58.682Z,31.9
2018-10-21T08:03:18.248Z,31.5
2018-10-21T08:03:37.787Z,30.5
2018-10-21T08:03:57.295Z,35.5
2018-10-21T08:04:16.885Z,34.200001
2018-10-21T08:04:36.357Z,26.700001
2018-10-21T08:04:55.859Z,26.5
2018-10-21T08:05:15.385Z,29.200001
2018-10-21T08:05:34.899Z,28.6
2018-10-21T08:05:54.416Z,33.200001
2018-10-21T08:06:13.934Z,35
2018-10-21T08:06:33.479Z,28.6
2018-10-21T08:06:53.041Z,29.9
2018-10-21T08:07:12.567Z,37.5
2018-10-21T08:07:32.073Z,30.4
2018-10-21T08:07:51.741Z,32.5
2018-10-21T08:08:11.255Z,30.200001
2018-10-21T08:08:30.877Z,30.5
2018-10-21T08:08:50.359Z,25.799999
2018-10-21T08:09:09.897Z,30
2018-10-21T08:09:29.399Z,29.799999
2018-10-21T08:09:48.903Z,31.4
2018-10-21T08:10:08.441Z,34.599998
2018-10-21T08:10:29.231Z,33.700001
2018-10-21T08:10:48.743Z,28.700001
2018-10-21T08:11:08.260Z,32.299999
2018-10-21T08:11:27.835Z,30
2018-10-21T08:11:47.394Z,34.5
2018-10-21T08:12:06.897Z,33.200001
2018-10-21T08:12:26.452Z,30.200001
2018-10-21T08:12:45.984Z,30.6
2018-10-21T08:13:05.514Z,29.5
2018-10-21T08:13:25.086Z,32.599998
2018-10-21T08:13:44.618Z,32.799999
2018-10-21T08:14:04.152Z,29.299999
2018-10-21T08:14:23.707Z,32.099998
2018-10-21T08:14:43.304Z,31.200001
2018-10-21T08:15:02.807Z,34.5
2018-10-21T08:15:22.256Z,32.5
2018-10-21T08:15:41.801Z,27.700001
2018-10-21T08:16:01.423Z,31.9
2018-10-21T08:16:20.989Z,31.1
2018-10-21T08:16:40.549Z,29
2018-10-21T08:17:00.077Z,32.400002
2018-10-21T08:17:19.616Z,34.400002
2018-10-21T08:17:39.163Z,32.599998
2018-10-21T08:17:58.648Z,33.099998
2018-10-21T08:18:18.146Z,40.099998
2018-10-21T08:18:37.698Z,31.4
2018-10-21T08:18:57.232Z,28.9
2018-10-21T08:19:16.781Z,33.599998
2018-10-21T08:19:36.279Z,26.299999
2018-10-21T08:19:55.831Z,30
2018-10-21T08:20:15.346Z,32.799999
2018-10-21T08:20:34.856Z,32.299999
2018-10-21T08:20:54.399Z,32
2018-10-21T08:21:13.952Z,37.5
2018-10-21T08:21:33.475Z,37.599998
2018-10-21T08:21:53.019Z,36.200001
2018-10-21T08:22:12.561Z,38.400002
2018-10-21T08:22:32.079Z,34.299999
2018-10-21T08:22:51.627Z,35.299999
2018-10-21T08:23:11.180Z,33.200001
2018-10-21T08:23:30.757Z,32.200001
2018-10-21T08:23:50.295Z,33.099998
2018-10-21T08:24:09.805Z,32.5
2018-10-21T08:24:29.326Z,38.5
2018-10-21T08:24:48.882Z,29.9
2018-10-21T08:25:08.393Z,31.6
2018-10-21T08:25:27.958Z,29.6
2018-10-21T08:25:48.472Z,32.200001
2018-10-21T08:26:07.993Z,28.6
2018-10-21T08:26:27.606Z,30.799999
2018-10-21T08:26:47.079Z,30.9
2018-10-21T08:27:06.628Z,34.299999
2018-10-21T08:27:26.197Z,29.799999
2018-10-21T08:27:45.679Z,32.5
2018-10-21T08:28:06.227Z,31.799999
2018-10-21T08:28:25.788Z,33.700001
2018-10-21T08:28:45.397Z,37.200001
2018-10-21T08:29:04.891Z,35.5
2018-10-21T08:29:24.388Z,33.900002
2018-10-21T08:29:43.903Z,30.799999
2018-10-21T08:30:03.435Z,29.5
2018-10-21T08:30:22.985Z,34.5
2018-10-21T08:30:42.494Z,35
2018-10-21T08:31:02.088Z,33.5
2018-10-21T08:31:21.664Z,29.1
2018-10-21T08:31:41.197Z,26.1
2018-10-21T08:32:01.724Z,28
2018-10-21T08:32:21.294Z,27.9
2018-10-21T08:32:40.804Z,29.1
2018-10-21T08:33:00.400Z,28.4
2018-10-21T08:33:19.904Z,25.700001
2018-10-21T08:33:39.537Z,28.5
2018-10-21T08:33:59.080Z,26.5
2018-10-21T08:34:18.769Z,29.6
2018-10-21T08:34:38.145Z,31.4
2018-10-21T08:34:57.725Z,37.299999
2018-10-21T08:35:17.210Z,27.9
2018-10-21T08:35:36.718Z,27.700001
2018-10-21T08:35:56.272Z,23.799999
2018-10-21T08:36:15.794Z,27.799999
2018-10-21T08:36:35.355Z,28.700001
2018-10-21T08:36:54.866Z,28.1
2018-10-21T08:37:14.415Z,30.200001
2018-10-21T08:37:33.925Z,27.799999
2018-10-21T08:37:53.496Z,28.799999
2018-10-21T08:38:13.023Z,31
2018-10-21T08:38:32.672Z,28.5
2018-10-21T08:38:52.311Z,23.6
2018-10-21T08:39:11.972Z,30.1
2018-10-21T08:39:31.492Z,25.4
2018-10-21T08:39:50.990Z,27.9
2018-10-21T08:40:10.628Z,30.5
2018-10-21T08:40:30.074Z,31.700001
2018-10-21T08:40:49.618Z,26
2018-10-21T08:41:09.087Z,27.299999
2018-10-21T08:41:28.631Z,29.1
2018-10-21T08:41:49.146Z,30.799999
2018-10-21T08:42:09.669Z,25.299999
2018-10-21T08:42:29.189Z,26.4
2018-10-21T08:42:48.736Z,28.1
2018-10-21T08:43:08.266Z,29.200001
2018-10-21T08:43:27.777Z,26.700001
2018-10-21T08:43:48.332Z,27.799999
2018-10-21T08:44:07.869Z,33.700001
2018-10-21T08:44:27.413Z,30.200001
2018-10-21T08:44:46.908Z,30.200001
2018-10-21T08:45:06.420Z,28.5
2018-10-21T08:45:25.920Z,29.9
2018-10-21T08:45:45.462Z,29.4
2018-10-21T08:46:05.059Z,28.1
2018-10-21T08:46:24.672Z,31.5
2018-10-21T08:46:44.114Z,29.6
2018-10-21T08:47:03.560Z,29.5
2018-10-21T08:47:23.110Z,27
2018-10-21T08:47:42.685Z,31.6
2018-10-21T08:48:03.203Z,34.099998
2018-10-21T08:48:22.822Z,32.599998
2018-10-21T08:48:42.489Z,29
2018-10-21T08:49:02.168Z,25.200001
2018-10-21T08:49:21.775Z,26
2018-10-21T08:49:41.296Z,24.5
2018-10-21T08:50:00.936Z,26.9
2018-10-21T08:50:20.411Z,30
2018-10-21T08:50:40.945Z,30.299999
2018-10-21T08:51:00.502Z,30.700001
2018-10-21T08:51:21.067Z,29.700001
2018-10-21T08:51:40.617Z,30.5
2018-10-21T08:52:00.173Z,31.4
2018-10-21T08:52:19.690Z,27.200001
2018-10-21T08:52:39.233Z,26.4
2018-10-21T08:52:58.810Z,26.799999
2018-10-21T08:53:18.327Z,31.200001
2018-10-21T08:53:37.885Z,31.700001
2018-10-21T08:53:57.487Z,28.1
2018-10-21T08:54:17.020Z,25
2018-10-21T08:54:36.581Z,26.9
2018-10-21T08:54:56.135Z,28
2018-10-21T08:55:15.733Z,28.6
2018-10-21T08:55:35.238Z,25.1
2018-10-21T08:55:54.860Z,29.700001
2018-10-21T08:56:14.301Z,34
2018-10-21T08:56:33.824Z,32.900002
2018-10-21T08:56:53.349Z,28.799999
2018-10-21T08:57:12.873Z,33.5
2018-10-21T08:57:32.391Z,34.299999
2018-10-21T08:57:51.940Z,32.200001
2018-10-21T08:58:11.555Z,31
2018-10-21T08:58:31.009Z,29
2018-10-21T08:58:50.610Z,32.5
2018-10-21T08:59:10.195Z,31.5
2018-10-21T08:59:29.787Z,30.6
2018-10-21T08:59:49.334Z,34.900002
2018-10-21T09:00:08.919Z,32.700001
2018-10-21T09:00:28.527Z,25.200001
2018-10-21T09:00:48.086Z,28.9
2018-10-21T09:01:07.684Z,27.6
2018-10-21T09:01:27.170Z,26
2018-10-21T09:01:46.693Z,25.799999
2018-10-21T09:02:06.363Z,30
2018-10-21T09:02:25.812Z,25
2018-10-21T09:02:45.332Z,24.700001
2018-10-21T09:03:04.868Z,24.5
2018-10-21T09:03:24.430Z,25.1
2018-10-21T09:03:44.152Z,24.700001
2018-10-21T09:04:03.814Z,27
2018-10-21T09:04:23.316Z,27.4
2018-10-21T09:04:42.876Z,29.1
2018-10-21T09:05:02.383Z,27.1
2018-10-21T09:05:21.873Z,26.6
2018-10-21T09:05:42.391Z,22.6
2018-10-21T09:06:01.920Z,24.700001
2018-10-21T09:06:22.426Z,26.200001
2018-10-21T09:06:41.959Z,25.6
2018-10-21T09:07:01.487Z,28.700001
2018-10-21T09:07:20.984Z,29.1
2018-10-21T09:07:40.496Z,25.4
2018-10-21T09:08:00.055Z,27.799999
2018-10-21T09:08:19.631Z,28.299999
2018-10-21T09:08:40.121Z,27.299999
2018-10-21T09:08:59.654Z,22.4
2018-10-21T09:09:19.279Z,26.700001
2018-10-21T09:09:38.830Z,27.799999
2018-10-21T09:09:58.372Z,30.1
2018-10-21T09:10:18.091Z,28.9
2018-10-21T09:10:37.603Z,31.1
2018-10-21T09:10:57.029Z,29.6
2018-10-21T09:11:16.451Z,24.5
2018-10-21T09:11:36.006Z,25.200001
2018-10-21T09:11:55.554Z,25.9
2018-10-21T09:12:15.099Z,30.6
2018-10-21T09:12:35.647Z,30.299999
2018-10-21T09:12:55.215Z,27.299999
2018-10-21T09:13:15.823Z,29.5
2018-10-21T09:13:35.296Z,30.200001
2018-10-21T09:13:54.831Z,27.1
2018-10-21T09:14:14.408Z,28.1
2018-10-21T09:14:33.930Z,28.200001
2018-10-21T09:14:53.471Z,28.200001
2018-10-21T09:15:13.095Z,31.5
2018-10-21T09:15:32.639Z,32.299999
2018-10-21T09:15:52.108Z,26.299999
2018-10-21T09:16:11.678Z,26.200001
2018-10-21T09:16:31.186Z,24.4
2018-10-21T09:16:50.628Z,28.6
2018-10-21T09:17:10.139Z,23.6
2018-10-21T09:17:29.650Z,25.5
2018-10-21T09:17:49.151Z,27.9
2018-10-21T09:18:08.673Z,25.5
2018-10-21T09:18:29.172Z,27.799999
2018-10-21T09:18:48.680Z,29.200001
2018-10-21T09:19:08.287Z,25.200001
2018-10-21T09:19:27.751Z,25.799999
2018-10-21T09:19:47.288Z,27.1
2018-10-21T09:20:06.807Z,24.9
2018-10-21T09:20:26.328Z,23.700001
2018-10-21T09:20:45.840Z,24.700001
2018-10-21T09:21:05.348Z,25.9
2018-10-21T09:21:24.858Z,32.200001
2018-10-21T09:21:44.361Z,32.799999
2018-10-21T09:22:03.930Z,27.6
2018-10-21T09:22:23.434Z,28.200001
2018-10-21T09:22:42.973Z,25.1
2018-10-21T09:23:03.487Z,25.700001
2018-10-21T09:23:23.010Z,24
2018-10-21T09:23:42.611Z,26.9
2018-10-21T09:24:02.065Z,28.200001
2018-10-21T09:24:21.638Z,28.6
2018-10-21T09:24:41.143Z,26.6
2018-10-21T09:25:00.673Z,30.799999
2018-10-21T09:25:20.303Z,34.900002
2018-10-21T09:25:39.668Z,30.9
2018-10-21T09:25:59.203Z,25.700001
2018-10-21T09:26:18.739Z,25.4
2018-10-21T09:26:38.241Z,30.799999
2018-10-21T09:26:57.783Z,31.1
2018-10-21T09:27:17.291Z,25.1
2018-10-21T09:27:36.861Z,26.6
2018-10-21T09:27:56.400Z,24.6
2018-10-21T09:28:16.015Z,26.299999
2018-10-21T09:28:35.438Z,30.5
2018-10-21T09:28:55.028Z,31.799999
2018-10-21T09:29:14.637Z,32.599998
2018-10-21T09:29:34.218Z,32.099998
2018-10-21T09:29:53.728Z,33.599998
2018-10-21T09:30:13.259Z,29.799999
2018-10-21T09:30:32.772Z,32.599998
2018-10-21T09:30:52.391Z,32.599998
2018-10-21T09:31:12.021Z,32
2018-10-21T09:31:31.440Z,27.1
2018-10-21T09:31:50.984Z,30.6
2018-10-21T09:32:10.493Z,30.4
2018-10-21T09:32:30.041Z,29
2018-10-21T09:32:50.544Z,34.099998
2018-10-21T09:33:10.098Z,29.1
2018-10-21T09:33:29.667Z,27.5
2018-10-21T09:33:49.136Z,34.099998
2018-10-21T09:34:09.681Z,37.5
2018-10-21T09:34:29.280Z,27.6
2018-10-21T09:34:48.785Z,30.299999
2018-10-21T09:35:08.318Z,30.9
2018-10-21T09:35:27.825Z,30.200001
2018-10-21T09:35:47.323Z,30.200001
2018-10-21T09:36:06.827Z,33.099998
2018-10-21T09:36:26.362Z,34.200001
2018-10-21T09:36:45.849Z,33.799999
2018-10-21T09:37:05.464Z,27.1
2018-10-21T09:37:25.894Z,27.799999
2018-10-21T09:37:45.393Z,27.700001
2018-10-21T09:38:04.891Z,31.200001
2018-10-21T09:38:24.412Z,32.299999
2018-10-21T09:38:43.985Z,27.9
2018-10-21T09:39:03.512Z,29.6
2018-10-21T09:39:23.083Z,31.1
2018-10-21T09:39:42.685Z,29.6
2018-10-21T09:40:02.255Z,34.299999
2018-10-21T09:40:21.891Z,33.700001
2018-10-21T09:40:41.271Z,29.700001
2018-10-21T09:41:00.761Z,32
2018-10-21T09:41:20.266Z,31.200001
2018-10-21T09:41:39.791Z,29.4
2018-10-21T09:41:59.333Z,34.299999
2018-10-21T09:42:18.939Z,29.6
2018-10-21T09:42:38.341Z,30
2018-10-21T09:42:58.872Z,31.200001
2018-10-21T09:43:18.387Z,26
2018-10-21T09:43:37.901Z,31.299999
2018-10-21T09:43:57.433Z,29.200001
2018-10-21T09:44:16.954Z,30.799999
2018-10-21T09:44:36.763Z,30.299999
2018-10-21T09:44:56.258Z,30
2018-10-21T09:45:15.809Z,30.700001
2018-10-21T09:45:35.322Z,30.799999
2018-10-21T09:45:54.841Z,31
2018-10-21T09:46:14.425Z,32.799999
2018-10-21T09:46:33.851Z,34.400002
2018-10-21T09:46:53.387Z,32.900002
2018-10-21T09:47:12.990Z,31.6
2018-10-21T09:47:32.543Z,33.599998
2018-10-21T09:47:52.050Z,31.700001
2018-10-21T09:48:11.596Z,31.4
2018-10-21T09:48:31.124Z,33.799999
2018-10-21T09:48:50.642Z,32.5
2018-10-21T09:49:10.240Z,27.6
2018-10-21T09:49:29.718Z,30.6